createdAt,value
2023-02-13T00:02:14.448Z,2.30
2023-02-13T00:04:43.004Z,2.38
2023-02-13T00:07:14.094Z,2.00
2023-02-13T00:09:41.340Z,2.22
2023-02-13T00:12:09.285Z,2.40
2023-02-13T00:14:36.996Z,2.22
2023-02-13T00:17:04.785Z,2.05
2023-02-13T00:19:32.063Z,2.35
2023-02-13T00:21:59.900Z,2.00
2023-02-13T00:24:27.485Z,2.58
2023-02-13T00:26:54.723Z,2.53
2023-02-13T00:29:21.916Z,2.15
2023-02-13T00:31:49.214Z,2.92
2023-02-13T00:34:19.536Z,2.65
2023-02-13T00:36:46.765Z,2.60
2023-02-13T00:39:14.043Z,2.72
2023-02-13T00:41:41.284Z,3.40
2023-02-13T00:44:09.778Z,3.13
2023-02-13T00:46:38.880Z,2.90
2023-02-13T00:49:06.509Z,2.90
2023-02-13T00:51:34.036Z,2.70
2023-02-13T00:54:01.503Z,2.60
2023-02-13T00:56:28.710Z,2.40
2023-02-13T00:58:55.934Z,2.13
2023-02-13T01:01:23.426Z,2.40
2023-02-13T01:03:50.737Z,2.40
2023-02-13T01:06:17.986Z,2.78
2023-02-13T01:08:45.301Z,2.42
2023-02-13T01:11:12.493Z,2.78
2023-02-13T01:13:39.828Z,2.33
2023-02-13T01:16:07.440Z,2.35
2023-02-13T01:18:34.711Z,2.45
2023-02-13T01:21:04.540Z,2.70
2023-02-13T01:23:32.724Z,2.42
2023-02-13T01:26:00.438Z,2.70
2023-02-13T01:28:27.765Z,2.42
2023-02-13T01:30:58.218Z,2.20
2023-02-13T01:33:27.585Z,2.75
2023-02-13T01:35:55.019Z,2.85
2023-02-13T01:38:22.746Z,2.70
2023-02-13T01:40:51.061Z,2.20
2023-02-13T01:43:18.918Z,2.50
2023-02-13T01:45:47.818Z,2.22
2023-02-13T01:48:15.185Z,2.60
2023-02-13T01:50:46.358Z,2.40
2023-02-13T01:53:15.689Z,2.75
2023-02-13T01:55:47.092Z,2.83
2023-02-13T01:58:18.066Z,2.80
2023-02-13T02:00:49.844Z,2.70
2023-02-13T02:03:20.797Z,2.63
2023-02-13T02:05:48.148Z,2.80
2023-02-13T02:08:16.913Z,2.60
2023-02-13T02:10:44.428Z,2.72
2023-02-13T02:13:21.045Z,2.47
2023-02-13T02:15:49.130Z,2.17
2023-02-13T02:18:17.507Z,2.30
2023-02-13T02:20:50.530Z,2.28
2023-02-13T02:23:30.674Z,2.53
2023-02-13T02:25:57.913Z,2.33
2023-02-13T02:28:43.286Z,2.42
2023-02-13T02:31:10.605Z,1.90
2023-02-13T02:33:44.190Z,2.35
2023-02-13T02:39:17.402Z,2.00
2023-02-13T02:42:06.031Z,1.88
2023-02-13T02:44:44.557Z,1.92
2023-02-13T02:48:06.258Z,1.98
2023-02-13T02:50:40.826Z,1.77
2023-02-13T02:53:07.991Z,1.63
2023-02-13T02:55:42.873Z,1.52
2023-02-13T02:58:32.286Z,1.40
2023-02-13T03:01:19.692Z,1.73
2023-02-13T03:04:06.816Z,1.70
2023-02-13T03:06:45.401Z,1.35
2023-02-13T03:09:33.296Z,1.80
2023-02-13T03:12:20.213Z,1.70
2023-02-13T03:14:47.710Z,1.95
2023-02-13T03:17:35.522Z,2.45
2023-02-13T03:20:46.651Z,2.10
2023-02-13T03:23:37.026Z,1.88
2023-02-13T03:26:16.756Z,2.15
2023-02-13T03:29:09.409Z,2.08
2023-02-13T03:31:36.639Z,2.10
2023-02-13T03:34:10.098Z,2.10
2023-02-13T03:39:24.946Z,2.15
2023-02-13T03:41:56.743Z,2.42
2023-02-13T03:44:26.706Z,1.73
2023-02-13T03:46:56.581Z,1.70
2023-02-13T03:49:44.807Z,2.00
2023-02-13T03:52:15.440Z,1.85
2023-02-13T03:55:04.368Z,2.10
2023-02-13T03:57:52.918Z,2.40
2023-02-13T04:00:21.698Z,1.95
2023-02-13T04:02:55.753Z,1.90
2023-02-13T04:05:25.511Z,1.52
2023-02-13T04:07:53.009Z,1.88
2023-02-13T04:10:20.566Z,2.00
2023-02-13T04:12:47.766Z,1.77
2023-02-13T04:15:33.705Z,1.65
2023-02-13T04:18:20.824Z,1.75
2023-02-13T04:20:51.087Z,1.45
2023-02-13T04:23:18.358Z,1.80
2023-02-13T04:25:47.778Z,1.70
2023-02-13T04:28:15.589Z,1.75
2023-02-13T04:30:43.073Z,1.50
2023-02-13T04:33:10.316Z,1.50
2023-02-13T04:35:37.559Z,1.58
2023-02-13T04:38:05.067Z,1.58
2023-02-13T04:40:32.264Z,1.65
2023-02-13T04:42:59.761Z,1.63
2023-02-13T04:45:27.064Z,1.40
2023-02-13T04:47:55.284Z,1.63
2023-02-13T04:50:22.881Z,2.92
2023-02-13T04:52:53.559Z,2.33
2023-02-13T04:55:20.807Z,1.85
2023-02-13T04:57:48.330Z,1.85
2023-02-13T05:00:15.698Z,1.95
2023-02-13T05:02:42.817Z,2.65
2023-02-13T05:05:10.011Z,2.10
2023-02-13T05:07:37.464Z,2.50
2023-02-13T05:10:05.286Z,3.35
2023-02-13T05:12:32.548Z,3.35
2023-02-13T05:14:59.963Z,3.28
2023-02-13T05:17:28.329Z,3.70
2023-02-13T05:19:55.680Z,3.40
2023-02-13T05:22:41.883Z,3.72
2023-02-13T05:25:09.096Z,3.45
2023-02-13T05:27:36.287Z,3.55
2023-02-13T05:30:03.575Z,3.28
2023-02-13T05:32:30.828Z,3.22
2023-02-13T05:34:58.057Z,3.80
2023-02-13T05:37:28.114Z,3.35
2023-02-13T05:39:55.273Z,3.80
2023-02-13T05:42:22.666Z,4.28
2023-02-13T05:44:50.011Z,3.42
2023-02-13T05:47:17.317Z,2.80
2023-02-13T05:49:44.520Z,3.72
2023-02-13T05:52:11.826Z,3.67
2023-02-13T05:54:39.521Z,3.05
2023-02-13T05:57:06.679Z,5.07
2023-02-13T05:59:33.955Z,5.10
2023-02-13T06:02:01.689Z,5.13
2023-02-13T06:04:28.876Z,4.80
2023-02-13T06:06:56.175Z,4.45
2023-02-13T06:09:23.372Z,4.20
2023-02-13T06:11:50.662Z,4.47
2023-02-13T06:14:18.141Z,4.57
2023-02-13T06:16:45.410Z,4.60
2023-02-13T06:19:12.575Z,4.75
2023-02-13T06:21:40.070Z,4.15
2023-02-13T06:24:08.207Z,3.90
2023-02-13T06:26:35.822Z,4.18
2023-02-13T06:29:05.162Z,3.70
2023-02-13T06:31:33.047Z,4.07
2023-02-13T06:34:00.299Z,3.38
2023-02-13T06:36:27.640Z,3.58
2023-02-13T06:38:55.576Z,4.13
2023-02-13T06:41:22.747Z,3.50
2023-02-13T06:43:49.999Z,5.05
2023-02-13T06:46:17.514Z,3.72
2023-02-13T06:48:44.926Z,3.80
2023-02-13T06:51:12.191Z,4.18
2023-02-13T06:53:39.750Z,3.53
2023-02-13T06:56:07.180Z,3.00
2023-02-13T06:58:34.480Z,3.60
2023-02-13T07:01:01.837Z,3.75
2023-02-13T07:03:29.176Z,4.05
2023-02-13T07:05:56.701Z,3.90
2023-02-13T07:08:24.138Z,3.75
2023-02-13T07:10:51.436Z,3.78
2023-02-13T07:13:18.676Z,3.70
2023-02-13T07:15:46.184Z,4.53
2023-02-13T07:18:13.706Z,4.65
2023-02-13T07:20:40.950Z,3.78
2023-02-13T07:23:08.427Z,3.83
2023-02-13T07:25:36.070Z,4.20
2023-02-13T07:28:04.404Z,16.45
2023-02-13T07:30:32.371Z,20.65
2023-02-13T07:33:03.073Z,6.28
2023-02-13T07:35:30.319Z,4.55
2023-02-13T07:37:57.646Z,3.97
2023-02-13T07:40:24.986Z,3.97
2023-02-13T07:42:52.302Z,3.97
2023-02-13T07:45:19.649Z,10.63
2023-02-13T07:47:47.011Z,27.08
2023-02-13T07:50:14.505Z,10.02
2023-02-13T07:52:41.818Z,16.45
2023-02-13T07:55:11.630Z,6.20
2023-02-13T07:57:38.881Z,9.02
2023-02-13T08:00:07.684Z,7.13
2023-02-13T08:02:34.960Z,3.63
2023-02-13T08:05:03.097Z,3.95
2023-02-13T08:07:30.458Z,3.40
2023-02-13T08:10:16.255Z,3.70
2023-02-13T08:12:43.624Z,3.30
2023-02-13T08:15:12.997Z,4.03
2023-02-13T08:17:40.494Z,2.90
2023-02-13T08:20:11.572Z,2.45
2023-02-13T08:22:39.312Z,2.22
2023-02-13T08:25:07.638Z,2.90
2023-02-13T08:27:35.144Z,2.58
2023-02-13T08:30:03.545Z,3.03
2023-02-13T08:32:35.441Z,2.80
2023-02-13T08:35:07.456Z,3.70
2023-02-13T08:37:34.723Z,3.30
2023-02-13T08:40:02.043Z,3.38
2023-02-13T08:42:29.597Z,3.30
2023-02-13T08:44:58.682Z,3.00
2023-02-13T08:47:26.054Z,3.88
2023-02-13T08:49:53.319Z,3.90
2023-02-13T08:52:20.694Z,3.50
2023-02-13T08:54:47.850Z,6.03
2023-02-13T08:57:15.048Z,3.83
2023-02-13T08:59:42.392Z,3.03
2023-02-13T09:02:11.505Z,2.85
2023-02-13T09:04:38.822Z,2.10
2023-02-13T09:07:06.149Z,2.00
2023-02-13T09:09:33.541Z,2.95
2023-02-13T09:12:01.115Z,2.25
2023-02-13T09:14:28.537Z,2.30
2023-02-13T09:16:55.845Z,2.45
2023-02-13T09:19:23.275Z,2.80
2023-02-13T09:21:50.972Z,2.50
2023-02-13T09:24:18.246Z,3.05
2023-02-13T09:26:45.470Z,2.58
2023-02-13T09:29:12.625Z,3.15
2023-02-13T09:31:40.646Z,2.72
2023-02-13T09:34:07.885Z,3.10
2023-02-13T09:36:36.615Z,2.25
2023-02-13T09:39:03.791Z,2.55
2023-02-13T09:41:40.174Z,2.50
2023-02-13T09:44:12.973Z,2.40
2023-02-13T09:46:41.262Z,2.15
2023-02-13T09:49:20.861Z,1.77
2023-02-13T09:51:54.266Z,1.95
2023-02-13T09:54:21.472Z,1.83
2023-02-13T09:57:05.207Z,1.77
2023-02-13T09:59:36.267Z,1.80
2023-02-13T10:02:15.282Z,2.05
2023-02-13T10:05:01.904Z,2.00
2023-02-13T10:07:39.911Z,2.08
2023-02-13T10:10:07.841Z,1.85
2023-02-13T10:12:44.104Z,2.08
2023-02-13T10:15:29.922Z,1.98
2023-02-13T10:18:03.661Z,2.03
2023-02-13T10:20:36.754Z,2.25
2023-02-13T10:23:13.971Z,1.88
2023-02-13T10:25:47.859Z,2.30
2023-02-13T10:28:18.552Z,1.95
2023-02-13T10:30:57.583Z,1.98
2023-02-13T10:33:42.515Z,2.17
2023-02-13T10:36:24.883Z,2.40
2023-02-13T10:38:52.047Z,2.90
2023-02-13T10:41:29.379Z,3.00
2023-02-13T10:44:11.597Z,3.90
2023-02-13T10:46:55.872Z,2.80
2023-02-13T10:49:24.881Z,3.00
2023-02-13T10:52:11.907Z,2.90
2023-02-13T10:54:52.434Z,2.70
2023-02-13T10:57:49.259Z,2.58
2023-02-13T11:00:19.989Z,3.30
2023-02-13T11:02:50.223Z,3.30
2023-02-13T11:05:27.886Z,3.10
2023-02-13T11:07:55.136Z,3.30
2023-02-13T11:10:24.049Z,3.28
2023-02-13T11:12:57.324Z,3.42
2023-02-13T11:15:26.398Z,3.92
2023-02-13T11:17:55.009Z,3.90
2023-02-13T11:20:40.025Z,4.70
2023-02-13T11:23:26.176Z,3.38
2023-02-13T11:26:03.358Z,4.00
2023-02-13T11:28:32.394Z,4.22
2023-02-13T11:31:18.931Z,3.92
2023-02-13T11:33:46.486Z,4.38
2023-02-13T11:36:17.975Z,4.18
2023-02-13T11:38:45.252Z,4.55
2023-02-13T11:41:14.090Z,4.93
2023-02-13T11:43:49.608Z,6.18
2023-02-13T11:46:21.684Z,5.40
2023-02-13T11:49:06.176Z,5.55
2023-02-13T11:51:38.338Z,8.27
2023-02-13T11:54:09.397Z,4.13
2023-02-13T11:57:03.348Z,5.63
2023-02-13T11:59:34.030Z,8.80
2023-02-13T12:02:12.776Z,5.93
2023-02-13T12:04:40.139Z,6.10
2023-02-13T12:07:27.406Z,21.60
2023-02-13T12:10:09.458Z,16.65
2023-02-13T12:12:39.032Z,22.27
2023-02-13T12:15:16.376Z,16.77
2023-02-13T12:17:46.606Z,11.98
2023-02-13T12:20:17.168Z,12.57
2023-02-13T12:23:16.898Z,9.30
2023-02-13T12:26:00.401Z,13.77
2023-02-13T12:28:35.205Z,22.75
2023-02-13T12:31:05.865Z,10.93
2023-02-13T12:33:33.213Z,11.02
2023-02-13T12:36:00.498Z,10.57
2023-02-13T12:38:51.401Z,8.30
2023-02-13T12:41:33.018Z,8.75
2023-02-13T12:44:05.576Z,9.52
2023-02-13T12:46:46.559Z,8.82
2023-02-13T12:49:32.996Z,8.73
2023-02-13T12:52:19.943Z,9.45
2023-02-13T12:54:47.035Z,9.13
2023-02-13T12:57:28.998Z,9.35
2023-02-13T12:59:59.251Z,9.05
2023-02-13T13:02:32.552Z,9.68
2023-02-13T13:05:15.835Z,9.70
2023-02-13T13:07:52.540Z,9.75
2023-02-13T13:10:19.964Z,9.65
2023-02-13T13:12:53.309Z,9.55
2023-02-13T13:15:28.636Z,10.13
2023-02-13T13:18:08.983Z,10.50
2023-02-13T13:20:56.185Z,11.88
2023-02-13T13:23:32.813Z,12.38
2023-02-13T13:26:34.593Z,10.52
2023-02-13T13:29:02.662Z,10.18
2023-02-13T13:31:29.963Z,10.70
2023-02-13T13:34:01.339Z,11.65
2023-02-13T13:36:34.725Z,12.02
2023-02-13T13:39:21.701Z,12.82
2023-02-13T13:41:54.944Z,12.73
2023-02-13T13:44:40.975Z,12.02
2023-02-13T13:47:25.123Z,11.68
2023-02-13T13:49:54.011Z,11.88
2023-02-13T13:52:21.274Z,11.30
2023-02-13T13:54:51.632Z,11.80
2023-02-13T13:57:20.099Z,11.10
2023-02-13T13:59:51.887Z,11.07
2023-02-13T14:02:19.145Z,11.13
2023-02-13T14:05:39.282Z,11.27
2023-02-13T14:08:26.504Z,10.25
2023-02-13T14:11:01.738Z,10.13
2023-02-13T14:13:30.710Z,9.10
2023-02-13T14:15:58.057Z,8.75
2023-02-13T14:18:26.421Z,9.13
2023-02-13T14:20:55.340Z,9.13
2023-02-13T14:23:41.507Z,8.73
2023-02-13T14:26:17.903Z,9.00
2023-02-13T14:28:48.344Z,9.70
2023-02-13T14:31:25.467Z,9.05
2023-02-13T14:34:17.279Z,8.93
2023-02-13T14:36:46.080Z,8.68
2023-02-13T14:39:28.178Z,7.85
2023-02-13T14:41:55.317Z,8.23
2023-02-13T14:44:22.456Z,7.97
2023-02-13T14:46:51.080Z,7.22
2023-02-13T14:49:24.276Z,7.50
2023-02-13T14:51:59.449Z,7.63
2023-02-13T14:54:26.620Z,7.40
2023-02-13T14:56:55.459Z,8.38
2023-02-13T14:59:27.499Z,8.00
2023-02-13T15:01:59.771Z,29.02
2023-02-13T15:04:31.612Z,31.58
2023-02-13T15:07:00.482Z,8.50
2023-02-13T15:09:32.377Z,9.70
2023-02-13T15:12:00.060Z,19.17
2023-02-13T15:14:33.611Z,12.32
2023-02-13T15:17:00.844Z,7.57
2023-02-13T15:19:28.484Z,7.30
2023-02-13T15:21:57.859Z,8.55
2023-02-13T15:24:25.536Z,13.93
2023-02-13T15:26:59.152Z,9.60
2023-02-13T15:29:35.220Z,8.63
2023-02-13T15:32:18.530Z,9.35
2023-02-13T15:34:47.998Z,8.23
2023-02-13T15:37:22.618Z,9.40
2023-02-13T15:39:49.798Z,8.82
2023-02-13T15:42:17.032Z,9.23
2023-02-13T15:44:46.267Z,8.82
2023-02-13T15:47:18.994Z,8.43
2023-02-13T15:49:47.654Z,9.20
2023-02-13T15:52:19.168Z,9.27
2023-02-13T15:54:53.366Z,8.35
2023-02-13T15:57:21.231Z,6.75
2023-02-13T15:59:48.563Z,8.95
2023-02-13T16:02:19.209Z,8.85
2023-02-13T16:04:48.577Z,9.30
2023-02-13T16:07:16.225Z,8.05
2023-02-13T16:09:43.663Z,7.25
2023-02-13T16:12:16.760Z,6.97
2023-02-13T16:15:04.424Z,6.68
2023-02-13T16:17:34.152Z,6.53
2023-02-13T16:20:02.888Z,5.78
2023-02-13T16:22:30.030Z,5.95
2023-02-13T16:25:05.471Z,6.07
2023-02-13T16:27:34.247Z,6.82
2023-02-13T16:30:02.856Z,5.88
2023-02-13T16:32:34.392Z,7.95
2023-02-13T16:35:16.552Z,7.40
2023-02-13T16:37:50.611Z,7.50
2023-02-13T16:40:38.576Z,7.72
2023-02-13T16:43:24.754Z,7.97
2023-02-13T16:45:51.997Z,8.25
2023-02-13T16:48:19.241Z,7.57
2023-02-13T16:50:46.462Z,8.05
2023-02-13T16:53:16.833Z,8.23
2023-02-13T16:55:44.462Z,7.82
2023-02-13T16:58:19.033Z,7.70
2023-02-13T17:00:50.531Z,8.48
2023-02-13T17:03:17.705Z,7.57
2023-02-13T17:05:44.858Z,8.45
2023-02-13T17:08:12.018Z,7.43
2023-02-13T17:10:41.936Z,7.57
2023-02-13T17:13:19.555Z,7.45
2023-02-13T17:15:47.685Z,10.15
2023-02-13T17:18:15.196Z,9.68
2023-02-13T17:20:43.600Z,12.95
2023-02-13T17:23:15.520Z,10.07
2023-02-13T17:25:43.528Z,10.60
2023-02-13T17:28:15.376Z,10.52
2023-02-13T17:30:42.803Z,9.02
2023-02-13T17:33:15.353Z,9.77
2023-02-13T17:35:43.169Z,10.40
2023-02-13T17:38:10.881Z,9.40
2023-02-13T17:40:38.182Z,9.88
2023-02-13T17:43:05.526Z,10.13
2023-02-13T17:45:33.940Z,11.05
2023-02-13T17:48:01.618Z,11.82
2023-02-13T17:50:29.600Z,10.27
2023-02-13T17:52:57.653Z,11.32
2023-02-13T17:55:26.068Z,11.85
2023-02-13T17:57:53.820Z,13.73
2023-02-13T18:00:21.948Z,13.38
2023-02-13T18:02:49.900Z,11.18
2023-02-13T18:05:18.471Z,9.95
2023-02-13T18:07:46.072Z,12.05
2023-02-13T18:10:19.123Z,11.68
2023-02-13T18:12:46.802Z,13.32
2023-02-13T18:15:14.014Z,14.13
2023-02-13T18:17:41.258Z,13.50
2023-02-13T18:20:09.966Z,14.40
2023-02-13T18:22:37.212Z,12.35
2023-02-13T18:25:04.692Z,13.40
2023-02-13T18:27:31.842Z,14.18
2023-02-13T18:29:59.136Z,14.10
2023-02-13T18:32:26.500Z,14.10
2023-02-13T18:34:53.663Z,14.88
2023-02-13T18:37:21.324Z,13.18
2023-02-13T18:39:48.550Z,13.73
2023-02-13T18:42:15.748Z,14.13
2023-02-13T18:44:42.888Z,14.50
2023-02-13T18:47:10.034Z,13.82
2023-02-13T18:49:38.221Z,14.10
2023-02-13T18:52:05.407Z,13.32
2023-02-13T18:54:33.099Z,12.25
2023-02-13T18:57:00.612Z,12.25
2023-02-13T18:59:27.853Z,13.38
2023-02-13T19:01:55.053Z,13.05
2023-02-13T19:04:22.283Z,13.35
2023-02-13T19:06:49.547Z,10.60
2023-02-13T19:09:16.750Z,10.38
2023-02-13T19:11:44.551Z,10.75
2023-02-13T19:14:13.376Z,10.50
2023-02-13T19:16:40.752Z,10.65
2023-02-13T19:19:08.502Z,10.48
2023-02-13T19:21:37.418Z,11.07
2023-02-13T19:24:05.463Z,10.35
2023-02-13T19:26:32.968Z,11.75
2023-02-13T19:29:00.186Z,12.13
2023-02-13T19:31:29.174Z,11.93
2023-02-13T19:33:56.795Z,11.00
2023-02-13T19:36:24.911Z,11.15
2023-02-13T19:38:59.418Z,12.15
2023-02-13T19:41:26.793Z,11.10
2023-02-13T19:43:53.939Z,11.18
2023-02-13T19:46:22.766Z,11.02
2023-02-13T19:48:50.568Z,11.95
2023-02-13T19:51:19.034Z,11.55
2023-02-13T19:53:46.974Z,11.52
2023-02-13T19:56:14.220Z,12.27
2023-02-13T19:58:42.109Z,12.70
2023-02-13T20:01:14.269Z,12.98
2023-02-13T20:03:42.336Z,16.30
2023-02-13T20:06:10.712Z,14.38
2023-02-13T20:08:37.874Z,12.95
2023-02-13T20:11:07.396Z,13.90
2023-02-13T20:13:34.965Z,13.95
2023-02-13T20:16:05.615Z,13.23
2023-02-13T20:18:32.991Z,12.82
2023-02-13T20:21:00.409Z,13.85
2023-02-13T20:23:27.856Z,12.63
2023-02-13T20:25:55.093Z,12.45
2023-02-13T20:28:22.317Z,13.05
2023-02-13T20:30:50.226Z,12.10
2023-02-13T20:33:17.689Z,11.98
2023-02-13T20:35:44.900Z,13.10
2023-02-13T20:38:13.549Z,13.07
2023-02-13T20:40:41.715Z,12.43
2023-02-13T20:43:08.942Z,12.13
2023-02-13T20:45:36.177Z,12.82
2023-02-13T20:48:03.272Z,12.85
2023-02-13T20:50:30.434Z,11.98
2023-02-13T20:52:58.295Z,12.25
2023-02-13T20:55:25.475Z,11.55
2023-02-13T20:57:52.641Z,13.48
2023-02-13T21:00:19.894Z,15.95
2023-02-13T21:02:47.146Z,13.85
2023-02-13T21:05:14.347Z,14.23
2023-02-13T21:07:41.638Z,15.02
2023-02-13T21:10:09.185Z,14.70
2023-02-13T21:12:36.312Z,14.10
2023-02-13T21:15:03.601Z,13.55
2023-02-13T21:17:30.727Z,13.60
2023-02-13T21:19:57.954Z,12.52
2023-02-13T21:22:25.186Z,14.13
2023-02-13T21:24:52.463Z,12.65
2023-02-13T21:27:19.737Z,12.35
2023-02-13T21:29:47.042Z,12.02
2023-02-13T21:32:14.389Z,11.27
2023-02-13T21:34:41.555Z,10.65
2023-02-13T21:37:08.762Z,12.43
2023-02-13T21:39:36.412Z,11.48
2023-02-13T21:42:04.616Z,10.32
2023-02-13T21:44:31.846Z,10.77
2023-02-13T21:46:59.081Z,11.27
2023-02-13T21:49:26.292Z,12.15
2023-02-13T21:51:53.502Z,12.40
2023-02-13T21:54:20.777Z,11.32
2023-02-13T21:56:48.039Z,9.98
2023-02-13T21:59:16.284Z,10.93
2023-02-13T22:01:44.347Z,11.98
2023-02-13T22:04:11.684Z,12.43
2023-02-13T22:06:40.237Z,13.85
2023-02-13T22:09:14.520Z,13.40
2023-02-13T22:11:42.511Z,13.63
2023-02-13T22:14:12.395Z,12.25
2023-02-13T22:16:39.979Z,13.48
2023-02-13T22:19:07.762Z,12.73
2023-02-13T22:21:36.203Z,11.63
2023-02-13T22:24:03.509Z,11.02
2023-02-13T22:26:31.807Z,11.68
2023-02-13T22:29:00.401Z,12.07
2023-02-13T22:31:27.814Z,11.13
2023-02-13T22:34:03.290Z,12.32
2023-02-13T22:36:32.284Z,11.52
2023-02-13T22:38:59.508Z,12.55
2023-02-13T22:41:27.750Z,10.80
2023-02-13T22:43:55.014Z,11.63
2023-02-13T22:46:23.362Z,13.02
2023-02-13T22:48:52.500Z,11.07
2023-02-13T22:51:30.315Z,11.80
2023-02-13T22:53:58.418Z,13.60
2023-02-13T22:56:26.628Z,11.93
2023-02-13T22:58:54.685Z,12.18
2023-02-13T23:01:22.702Z,14.15
2023-02-13T23:03:50.071Z,12.48
2023-02-13T23:06:17.434Z,12.57
2023-02-13T23:08:44.839Z,11.02
2023-02-13T23:11:32.412Z,12.75
2023-02-13T23:13:59.821Z,12.25
2023-02-13T23:16:27.878Z,12.40
2023-02-13T23:18:58.594Z,12.32
2023-02-13T23:21:26.211Z,11.60
2023-02-13T23:23:53.389Z,12.73
2023-02-13T23:26:20.569Z,12.30
2023-02-13T23:28:47.877Z,12.48
2023-02-13T23:31:15.242Z,12.27
2023-02-13T23:33:42.437Z,11.77
2023-02-13T23:36:09.626Z,12.02
2023-02-13T23:38:36.856Z,11.35
2023-02-13T23:41:08.566Z,11.45
2023-02-13T23:43:36.056Z,11.45
2023-02-13T23:46:04.298Z,11.85
2023-02-13T23:48:31.839Z,11.13
2023-02-13T23:50:59.406Z,10.95
2023-02-13T23:53:27.048Z,11.85
2023-02-13T23:55:55.073Z,12.10
2023-02-13T23:58:22.378Z,11.35
